Virtual LH

Virtual LH. There's no better way to fly
Since 2013.



AIRPORT MAP

METAR AND TAF INFORMATION

METAR FOR EGBB
ADDS - METARS form results

(0007 UTC 29 May 2020)
Data provider http://aviationweather.gov/metar/data/
 
METAR text: EGBB 282350Z AUTO 15005KT 9999 NCD 12/05 Q1031
Conditions at: EGBB (BIRMINGHAM AIRPO, GB) observed 2350 UTC 28 May 2020
Temperature: 12.0°C (54°F)
Dewpoint: 5.0°C (41°F) [RH = 62%]
Pressure (altimeter): 30.44 inches Hg (1031.0 mb)
Winds: from the SSE (150 degrees) at 6 MPH (5 knots; 2.6 m/s)
Visibility: 6 or more miles (10+ km)
Ceiling: at least 12,000 feet AGL
Clouds: sky clear below 12,000 feet AGL
Weather: no significant weather observed at this time

METAR text: EGBB 282320Z AUTO 15007KT 9999 NCD 12/05 Q1031
Conditions at: EGBB (BIRMINGHAM AIRPO, GB) observed 2320 UTC 28 May 2020
Temperature: 12.0°C (54°F)
Dewpoint: 5.0°C (41°F) [RH = 62%]
Pressure (altimeter): 30.44 inches Hg (1031.0 mb)
Winds: from the SSE (150 degrees) at 8 MPH (7 knots; 3.6 m/s)
Visibility: 6 or more miles (10+ km)
Ceiling: at least 12,000 feet AGL
Clouds: sky clear below 12,000 feet AGL
Weather: no significant weather observed at this time

Forecast for: EGBB (BIRMINGHAM AIRPO, GB)
Text: TAF EGBB 282255Z 2900/2924 14005KT CAVOK
Forecast period: 0000 UTC 29 May 2020 to 0000 UTC 30 May 2020
Forecast type: FROM: standard forecast or significant change
Winds: from the SE (140 degrees) at 6 MPH (5 knots; 2.6 m/s)
Visibility: 6 or more miles 10+ km)
Ceiling: unknown
Clouds: missing
Weather: NSW  (no significant weather)

RUNWAY INFORMATION

Runway 15 Runway length 8527 ft Runway width 151 ft
Runway elevation 305 ft Runway displaced threshold 1069 ft Runway heading 148
Runway 33 Runway length 8527 ft Runway width 151 ft
Runway elevation 328 ft Runway displaced threshold 987 ft Runway heading 328

AIRPORT FREQUENCIES

Type APP Name APP Frequency 118.05 MHZ
Type ATIS Name ATIS Frequency 136.02 MHZ
Type GND Name GND Frequency 121.8 MHZ
Type TWR Name TWR Frequency 118.3 MHZ

AIRPORT NEAR NAVIGATION AIDS

Type NDB Name Birmingham Frequency 406 KHZ